METAR AND TAF INFORMATION
METAR FOR HSSS
ADDS - METARS form results

(2125 UTC 20 February 2019)
Data provider http://aviationweather.gov/metar/data/
 
METAR text: HSSS 202100Z 02011KT CAVOK 23/M01 Q1014 NOSIG
Conditions at: HSSS (KHARTOUM (CIV/MI, SD) observed 2100 UTC 20 February 2019
Temperature: 23.0°C (73°F)
Dewpoint: -1.0°C (30°F) [RH = 20%]
Pressure (altimeter): 29.94 inches Hg (1014.0 mb)
Winds: from the NNE (20 degrees) at 13 MPH (11 knots; 5.7 m/s)
Visibility: 6 or more miles (10+ km)
Ceiling: ceiling and visibility are OK
Clouds: unknown
Weather: no significant weather observed at this time

METAR text: HSSS 202030Z 36010KT CAVOK 24/M02 Q1014 NOSIG
Conditions at: HSSS (KHARTOUM (CIV/MI, SD) observed 2030 UTC 20 February 2019
Temperature: 24.0°C (75°F)
Dewpoint: -2.0°C (28°F) [RH = 18%]
Pressure (altimeter): 29.94 inches Hg (1014.0 mb)
Winds: from the N (360 degrees) at 12 MPH (10 knots; 5.1 m/s)
Visibility: 6 or more miles (10+ km)
Ceiling: ceiling and visibility are OK
Clouds: unknown
Weather: no significant weather observed at this time

Forecast for: HSSS (KHARTOUM (CIV/MI, SD)
Text: TAF HSSS 201700Z 2018/2124 36008G20KT CAVOK
Forecast period: 1800 UTC 20 February 2019 to 0000 UTC 22 February 2019
Forecast type: FROM: standard forecast or significant change
Winds: from the N (360 degrees) at 9 MPH (8 knots; 4.1 m/s)
gusting to 23 MPH (20 knots; 10.3 m/s)
Visibility: 6 or more miles 10+ km)
Ceiling: unknown
Clouds: missing
Weather: NSW  (no significant weather)

 AIRPORT MAP

 RUNWAY INFORMATION
Runway 18 Runway length 9751 ft Runway width 148 ft
Runway elevation 1265 ft Runway displaced threshold 0 ft Runway heading 177
Runway 36 Runway length 9751 ft Runway width 148 ft
Runway elevation 1260 ft Runway displaced threshold 0 ft Runway heading 357

 AIRPORT FREQUENCIES
Type APP Name Khartoum A Frequency 124.7 MHZ
Type EMR Name FIRE Frequency 121.9 MHZ
Type North Area Name North Sect Frequency 125.4 MHZ
Type South Area Name South Sect Frequency 127.3 MHZ
Type TWR Name Khartoum T Frequency 119.2 MHZ

 AIRPORT NEAR NAVIGATION AIDS
Type VOR-DME Name Khartoum Frequency 112100 KHZ



Powered by Virtual Airlines Manager [v2.6.2]